Time;durP1;ratioP1;P1;durP2;ratioP2;P2;SDS_P1;SDS_P2;PMS_P1;PMS_P2;Temp;Humidity;BMP_temperature;BMP_pressure;BME280_temperature;BME280_humidity;BME280_pressure;Samples;Min_cycle;Max_cycle;Signal;HPM_P1;HPM_P2
2021/04/30 00:00:09;;;;;;;22.40;16.45;;;;;;;6.35;90.74;101092.78;4932663;29;20166;-80
2021/04/30 00:02:36;;;;;;;23.77;18.77;;;;;;;6.26;91.18;101090.69;4895900;29;20039;-80
2021/04/30 00:05:02;;;;;;;25.13;17.77;;;;;;;6.31;91.61;101109.41;4910447;29;20510;-79
2021/04/30 00:07:27;;;;;;;22.90;18.73;;;;;;;6.28;91.38;101088.03;4898965;29;20052;-79
2021/04/30 00:09:53;;;;;;;30.10;19.02;;;;;;;6.24;91.47;101099.47;4887651;29;20071;-79
2021/04/30 00:12:18;;;;;;;26.65;18.95;;;;;;;6.20;91.14;101096.22;4909669;29;20470;-80
2021/04/30 00:14:44;;;;;;;29.10;19.20;;;;;;;6.17;91.34;101098.16;4884762;29;20048;-79
2021/04/30 00:17:10;;;;;;;28.70;19.85;;;;;;;6.09;91.08;101089.97;4904768;29;20058;-79
2021/04/30 00:19:35;;;;;;;27.38;19.60;;;;;;;6.09;91.47;101097.72;4927090;29;20059;-80
2021/04/30 00:22:01;;;;;;;26.45;20.83;;;;;;;6.17;91.50;101116.25;4880578;29;20518;-80
2021/04/30 00:24:26;;;;;;;28.23;20.88;;;;;;;6.08;91.72;101107.22;4913179;29;20047;-80
2021/04/30 00:26:52;;;;;;;29.08;20.55;;;;;;;6.03;91.69;101093.72;4929371;29;20082;-79
2021/04/30 00:29:17;;;;;;;26.83;19.70;;;;;;;6.06;91.59;101098.72;4942010;28;20048;-79
2021/04/30 00:31:43;;;;;;;28.80;20.27;;;;;;;6.08;91.40;101114.97;4885318;29;20732;-79
2021/04/30 00:34:09;;;;;;;28.33;20.88;;;;;;;6.14;92.08;101124.19;4900480;29;20052;-79
2021/04/30 00:36:35;;;;;;;24.70;19.98;;;;;;;6.10;92.05;101105.38;4903620;29;20051;-78
2021/04/30 00:39:02;;;;;;;31.30;22.27;;;;;;;6.18;91.74;101117.91;4900239;29;20875;-79
2021/04/30 00:41:28;;;;;;;28.52;20.00;;;;;;;6.02;91.55;101103.22;4913761;29;20047;-78
2021/04/30 00:43:53;;;;;;;30.38;20.00;;;;;;;6.05;91.31;101103.06;4920282;29;20564;-78
2021/04/30 00:46:19;;;;;;;23.55;20.38;;;;;;;6.13;91.48;101109.59;4913850;29;20055;-79
2021/04/30 00:48:44;;;;;;;28.02;21.30;;;;;;;6.17;91.43;101116.25;4890762;29;20091;-79
2021/04/30 00:51:10;;;;;;;32.67;22.35;;;;;;;6.24;91.33;101128.75;4903289;29;20043;-79
2021/04/30 00:53:36;;;;;;;31.00;21.63;;;;;;;6.20;91.17;101113.50;4911170;29;20067;-79
2021/04/30 00:56:01;;;;;;;33.40;20.88;;;;;;;5.96;91.27;101082.91;4943264;28;20051;-79
2021/04/30 00:58:27;;;;;;;32.28;22.23;;;;;;;6.17;91.12;101124.84;4878714;29;20050;-79
2021/04/30 01:00:52;;;;;;;37.22;23.05;;;;;;;6.11;91.22;101126.94;4897195;29;20043;-79
2021/04/30 01:03:18;;;;;;;33.50;22.63;;;;;;;6.19;91.12;101140.25;4903499;29;20054;-78
2021/04/30 01:05:44;;;;;;;29.85;22.00;;;;;;;6.17;90.40;101137.75;4894151;29;20086;-79
2021/04/30 01:08:10;;;;;;;29.70;22.40;;;;;;;5.96;90.81;101120.84;4912348;29;20561;-79
2021/04/30 01:10:36;;;;;;;31.50;22.42;;;;;;;5.91;90.84;101125.41;4902099;29;20058;-79
2021/04/30 01:13:02;;;;;;;28.92;22.02;;;;;;;5.99;91.01;101139.59;4908638;29;20525;-79
2021/04/30 01:15:28;;;;;;;41.65;23.08;;;;;;;6.06;90.52;101147.84;4909720;29;20039;-79
2021/04/30 01:17:53;;;;;;;35.00;24.23;;;;;;;5.88;90.90;101139.28;4900436;29;20040;-79
2021/04/30 01:20:21;;;;;;;33.28;23.75;;;;;;;5.90;91.28;101152.16;4910525;29;20047;-79
2021/04/30 01:22:52;;;;;;;32.75;22.55;;;;;;;5.82;91.07;101149.97;4933872;29;20506;-79
2021/04/30 01:25:24;;;;;;;34.30;24.05;;;;;;;5.68;91.54;101139.50;4942674;28;20043;-79
2021/04/30 01:27:49;;;;;;;32.88;24.17;;;;;;;5.59;91.58;101135.69;4914437;29;20059;-78
2021/04/30 01:30:20;;;;;;;41.05;25.02;;;;;;;5.52;91.36;101136.06;4894060;29;20127;-78
2021/04/30 01:32:46;;;;;;;31.95;25.25;;;;;;;5.49;91.65;101137.06;4921981;29;20574;-78
2021/04/30 01:35:18;;;;;;;36.30;22.77;;;;;;;5.54;91.81;101149.72;4881635;29;20063;-78
2021/04/30 01:37:46;;;;;;;40.97;24.02;;;;;;;5.44;91.71;101146.78;4894076;29;20056;-77
2021/04/30 01:40:17;;;;;;;45.35;24.67;;;;;;;5.32;91.41;101131.91;4902677;29;20068;-78
2021/04/30 01:43:16;;;;;;;40.90;24.33;;;;;;;5.30;91.70;101138.91;4887434;29;20058;-78
2021/04/30 01:45:52;;;;;;;37.85;25.52;;;;;;;5.46;92.21;101163.03;4867049;29;20056;-78
2021/04/30 01:48:21;;;;;;;35.33;22.70;;;;;;;5.28;92.19;101145.91;4893329;29;20048;-78
2021/04/30 01:50:48;;;;;;;34.63;23.30;;;;;;;5.29;92.31;101152.72;4909931;29;20044;-78
2021/04/30 01:53:22;;;;;;;35.63;22.40;;;;;;;5.36;92.48;101167.00;4901302;29;20051;-78
2021/04/30 01:55:48;;;;;;;32.67;21.13;;;;;;;5.26;92.07;101148.56;4887305;29;20535;-79
2021/04/30 01:58:16;;;;;;;33.03;21.55;;;;;;;5.34;92.30;101164.50;4886685;29;20049;-78
2021/04/30 02:00:43;;;;;;;26.55;19.20;;;;;;;5.29;92.22;101158.72;4893252;29;20048;-78
2021/04/30 02:03:09;;;;;;;24.40;18.42;;;;;;;5.28;91.93;101162.22;4886402;29;20055;-78
2021/04/30 02:05:34;;;;;;;23.98;18.25;;;;;;;5.35;92.04;101181.66;4896053;29;20134;-78
2021/04/30 02:08:05;;;;;;;28.08;20.40;;;;;;;5.23;92.61;101155.63;4888746;29;20068;-78
2021/04/30 02:10:32;;;;;;;24.20;18.58;;;;;;;5.35;92.75;101180.81;4907050;29;20055;-78
2021/04/30 02:12:58;;;;;;;22.83;16.25;;;;;;;5.30;92.88;101175.91;4902823;29;20044;-78
2021/04/30 02:15:26;;;;;;;26.45;17.70;;;;;;;5.40;92.43;101176.28;4911250;29;20095;-78
2021/04/30 02:17:52;;;;;;;25.75;15.77;;;;;;;5.33;92.80;101168.00;4910691;29;20049;-78
2021/04/30 02:20:19;;;;;;;22.52;16.25;;;;;;;5.44;92.58;101182.94;4897150;29;20638;-78
2021/04/30 02:22:45;;;;;;;27.13;16.17;;;;;;;5.49;92.38;101180.97;4897106;29;20076;-78
2021/04/30 02:25:13;;;;;;;22.60;16.17;;;;;;;5.51;92.45;101181.72;4897688;29;20152;-79
2021/04/30 02:27:39;;;;;;;22.83;15.10;;;;;;;5.57;92.28;101188.34;4906758;29;20059;-78
2021/04/30 02:30:06;;;;;;;17.88;13.40;;;;;;;5.51;92.44;101176.56;4900627;29;20046;-78
2021/04/30 02:32:33;;;;;;;18.63;14.20;;;;;;;5.62;92.23;101188.94;4904868;29;20047;-78
2021/04/30 02:35:00;;;;;;;16.88;14.02;;;;;;;5.60;92.09;101183.84;4904119;29;20043;-78
2021/04/30 02:37:26;;;;;;;17.58;13.38;;;;;;;5.52;92.00;101165.31;4930127;29;20043;-78
2021/04/30 02:39:52;;;;;;;15.43;12.98;;;;;;;5.63;91.82;101169.94;4903772;29;20202;-78
2021/04/30 02:42:18;;;;;;;16.20;12.88;;;;;;;5.74;92.60;101196.03;4904535;29;20139;-78
2021/04/30 02:44:44;;;;;;;13.57;11.35;;;;;;;5.71;92.28;101185.84;4901105;29;20410;-79
2021/04/30 02:47:11;;;;;;;13.38;12.00;;;;;;;5.69;92.07;101178.19;4911948;29;20048;-78
2021/04/30 02:49:43;;;;;;;15.57;11.95;;;;;;;5.71;92.26;101181.53;4902213;29;20122;-78
2021/04/30 02:52:10;;;;;;;15.10;11.93;;;;;;;5.88;92.33;101188.41;4921526;29;20036;-78
2021/04/30 02:54:36;;;;;;;14.20;11.13;;;;;;;5.82;91.51;101187.91;4897432;29;20068;-78
2021/04/30 02:57:03;;;;;;;16.25;11.48;;;;;;;5.86;91.87;101194.56;4923114;29;20138;-78
2021/04/30 02:59:29;;;;;;;11.75;10.52;;;;;;;5.82;92.03;101188.72;4908038;29;20095;-78
2021/04/30 03:01:55;;;;;;;11.93;10.32;;;;;;;5.76;91.66;101170.97;4889260;29;20126;-78
2021/04/30 03:04:21;;;;;;;11.80;10.07;;;;;;;5.80;92.13;101181.97;4927181;29;20055;-78
2021/04/30 03:06:46;;;;;;;12.63;9.57;;;;;;;5.78;91.51;101174.31;4897645;29;20062;-78
2021/04/30 03:09:12;;;;;;;11.23;9.90;;;;;;;5.82;91.61;101180.13;4896038;29;20075;-78
2021/04/30 03:11:37;;;;;;;14.60;9.82;;;;;;;5.72;91.73;101161.69;4901147;29;20162;-78
2021/04/30 03:14:04;;;;;;;11.90;9.30;;;;;;;5.80;91.74;101166.47;4929436;29;20550;-78
2021/04/30 03:16:29;;;;;;;14.70;8.90;;;;;;;5.79;92.13;101170.81;4918201;29;20059;-78
2021/04/30 03:18:55;;;;;;;9.95;8.90;;;;;;;5.69;92.22;101157.50;4912323;29;20079;-78
2021/04/30 03:21:21;;;;;;;11.57;9.85;;;;;;;5.72;91.89;101152.19;4928703;29;20118;-78
2021/04/30 03:23:46;;;;;;;11.73;8.88;;;;;;;5.69;92.06;101146.34;4926531;29;20059;-78
2021/04/30 03:26:12;;;;;;;11.75;9.65;;;;;;;5.64;92.02;101143.19;4913429;29;20058;-78
2021/04/30 03:28:38;;;;;;;12.50;9.57;;;;;;;5.76;92.44;101156.31;4901175;29;20039;-78
2021/04/30 03:31:04;;;;;;;12.02;9.13;;;;;;;5.80;91.51;101169.88;4885296;29;20082;-78
2021/04/30 03:33:29;;;;;;;12.50;8.82;;;;;;;5.71;92.19;101167.78;4898354;29;20493;-78
2021/04/30 03:35:55;;;;;;;11.32;8.10;;;;;;;5.77;91.88;101177.81;4916620;29;20048;-78
2021/04/30 03:38:20;;;;;;;12.93;9.00;;;;;;;5.71;92.17;101173.78;4901082;29;20050;-78
2021/04/30 03:40:46;;;;;;;10.10;8.20;;;;;;;5.64;92.42;101171.59;4900247;29;20059;-78
2021/04/30 03:43:12;;;;;;;10.45;8.48;;;;;;;5.55;92.18;101167.72;4904846;29;20499;-77
2021/04/30 03:45:38;;;;;;;10.95;8.63;;;;;;;5.61;92.21;101185.50;4889176;29;20039;-77
2021/04/30 03:48:03;;;;;;;9.88;8.00;;;;;;;5.53;92.43;101187.63;4929695;29;20456;-78
2021/04/30 03:50:29;;;;;;;9.32;7.65;;;;;;;5.46;91.98;101189.72;4900888;29;20778;-78
2021/04/30 03:52:54;;;;;;;9.60;8.60;;;;;;;5.35;92.27;101184.22;4897976;29;20047;-78
2021/04/30 03:55:20;;;;;;;11.45;8.27;;;;;;;5.30;92.43;101185.38;4898100;29;20197;-78
2021/04/30 03:57:46;;;;;;;14.40;9.30;;;;;;;5.30;92.77;101180.22;4942629;28;20058;-78
2021/04/30 04:00:12;;;;;;;10.20;8.50;;;;;;;5.38;92.47;101196.16;4899885;29;20044;-78
2021/04/30 04:02:41;;;;;;;11.55;8.00;;;;;;;5.43;92.77;101210.53;4888888;29;20056;-79
2021/04/30 04:05:07;;;;;;;11.10;8.50;;;;;;;5.45;92.62;101211.28;4913140;29;20350;-78
2021/04/30 04:07:32;;;;;;;12.02;9.25;;;;;;;5.37;93.14;101197.06;4924041;29;20549;-79
2021/04/30 04:09:58;;;;;;;9.85;7.53;;;;;;;5.46;92.46;101212.94;4931371;29;20052;-78
2021/04/30 04:12:23;;;;;;;10.02;7.95;;;;;;;5.51;92.72;101219.63;4901077;29;20048;-78
2021/04/30 04:14:49;;;;;;;13.15;7.55;;;;;;;5.33;92.16;101191.22;4919628;29;20044;-79
2021/04/30 04:17:16;;;;;;;13.43;8.40;;;;;;;5.52;92.53;101216.97;4888346;29;20043;-78
2021/04/30 04:19:48;;;;;;;11.60;7.93;;;;;;;5.58;92.57;101232.19;4903912;29;20048;-78
2021/04/30 04:22:17;;;;;;;10.55;8.68;;;;;;;5.47;92.85;101212.03;4900978;29;20052;-78
2021/04/30 04:24:43;;;;;;;12.82;8.57;;;;;;;5.38;92.74;101191.81;4902043;29;20052;-78
2021/04/30 04:27:09;;;;;;;17.02;8.15;;;;;;;5.59;92.90;101215.75;4903546;29;20055;-78
2021/04/30 04:29:36;;;;;;;12.05;8.57;;;;;;;5.73;92.62;101235.69;4905209;29;20052;-78
2021/04/30 04:32:03;;;;;;;10.77;7.97;;;;;;;5.68;92.96;101222.19;4918360;29;20499;-78
2021/04/30 04:34:29;;;;;;;10.50;7.63;;;;;;;5.77;93.08;101234.66;4926285;29;20074;-78
2021/04/30 04:36:54;;;;;;;9.20;7.50;;;;;;;5.72;92.44;101221.94;4926776;29;20807;-76
2021/04/30 04:39:20;;;;;;;9.48;7.95;;;;;;;5.80;92.79;101226.75;4896994;29;20051;-75
2021/04/30 04:41:46;;;;;;;8.30;7.22;;;;;;;5.84;92.12;101228.25;4896890;29;20107;-75
2021/04/30 04:44:12;;;;;;;9.90;7.70;;;;;;;5.88;92.13;101231.50;4928117;29;20151;-76
2021/04/30 04:46:38;;;;;;;11.85;8.35;;;;;;;5.98;92.40;101246.50;4890784;29;20065;-75
2021/04/30 04:49:04;;;;;;;11.98;7.60;;;;;;;5.95;92.54;101241.50;4928855;29;20051;-76
2021/04/30 04:51:31;;;;;;;11.32;7.88;;;;;;;5.81;92.32;101218.06;4915472;29;20059;-75
2021/04/30 04:53:57;;;;;;;11.13;7.22;;;;;;;6.04;92.29;101251.34;4906405;29;20063;-76
2021/04/30 04:56:25;;;;;;;11.38;7.72;;;;;;;6.00;92.61;101255.00;4898867;29;20505;-75
2021/04/30 04:58:55;;;;;;;13.18;8.07;;;;;;;5.98;91.86;101243.09;4922646;29;20044;-75
2021/04/30 05:01:21;;;;;;;13.10;8.13;;;;;;;5.97;91.95;101239.66;4911071;29;20075;-75
2021/04/30 05:03:47;;;;;;;11.43;8.02;;;;;;;6.02;91.85;101252.34;4905810;29;20051;-76
2021/04/30 05:06:12;;;;;;;11.02;7.72;;;;;;;6.05;92.54;101260.78;4920346;29;20503;-76
2021/04/30 05:08:38;;;;;;;11.63;8.27;;;;;;;6.15;92.48;101278.41;4893977;29;20059;-76
2021/04/30 05:11:04;;;;;;;10.98;7.78;;;;;;;6.19;92.12;101269.56;4904299;29;20146;-76
2021/04/30 05:13:34;;;;;;;14.15;7.85;;;;;;;6.27;91.97;101280.31;4928415;29;20035;-76
2021/04/30 05:16:00;;;;;;;10.73;7.63;;;;;;;6.29;92.47;101281.94;4928984;29;20067;-76
2021/04/30 05:18:26;;;;;;;11.52;7.18;;;;;;;6.35;91.89;101278.19;4906874;29;20574;-76
2021/04/30 05:20:53;;;;;;;15.98;8.32;;;;;;;6.37;91.89;101273.78;4910668;29;20040;-76
2021/04/30 05:23:19;;;;;;;11.32;7.93;;;;;;;6.51;91.50;101278.22;4896798;29;20152;-76
2021/04/30 05:25:44;;;;;;;11.93;7.85;;;;;;;6.50;91.86;101268.78;4919554;29;20521;-76
2021/04/30 05:28:10;;;;;;;11.07;7.40;;;;;;;6.69;91.66;101289.31;4896565;29;20058;-76
2021/04/30 05:30:36;;;;;;;12.52;7.75;;;;;;;6.75;91.71;101284.66;4904169;29;20096;-76
2021/04/30 05:33:01;;;;;;;11.00;7.22;;;;;;;6.85;91.40;101291.00;4940693;28;20044;-76
2021/04/30 05:35:28;;;;;;;13.13;7.25;;;;;;;6.78;91.78;101289.66;4911395;29;20055;-76
2021/04/30 05:37:53;;;;;;;10.82;6.90;;;;;;;6.74;91.01;101280.38;4893550;29;20400;-75
2021/04/30 05:40:19;;;;;;;15.02;7.65;;;;;;;6.89;90.85;101305.44;4900640;29;20048;-76
2021/04/30 05:42:45;;;;;;;10.38;6.68;;;;;;;6.87;91.05;101293.50;4906425;29;20044;-76
2021/04/30 05:45:11;;;;;;;11.80;7.07;;;;;;;6.94;90.73;101306.00;4908965;29;20245;-76
2021/04/30 05:47:37;;;;;;;13.23;6.90;;;;;;;6.95;90.43;101312.03;4900612;29;20052;-76
2021/04/30 05:50:04;;;;;;;15.18;6.88;;;;;;;6.89;91.42;101310.63;4915717;29;20039;-76
2021/04/30 05:52:29;;;;;;;10.88;7.05;;;;;;;6.85;90.84;101300.53;4894457;29;20469;-76
2021/04/30 05:54:55;;;;;;;13.85;7.05;;;;;;;6.98;90.72;101307.50;4877367;29;20047;-76
2021/04/30 05:57:21;;;;;;;13.02;7.00;;;;;;;6.94;91.20;101308.59;4912200;29;20067;-76
2021/04/30 05:59:46;;;;;;;16.48;7.70;;;;;;;7.00;91.57;101306.59;4908067;29;20047;-76
2021/04/30 06:02:12;;;;;;;13.88;7.47;;;;;;;6.93;91.25;101296.56;4914887;29;20052;-77
2021/04/30 06:04:37;;;;;;;10.30;7.13;;;;;;;7.04;91.06;101305.53;4925630;29;20039;-77
2021/04/30 06:07:03;;;;;;;12.55;7.15;;;;;;;7.09;91.21;101304.34;4910778;29;20051;-76
2021/04/30 06:09:28;;;;;;;17.80;7.72;;;;;;;7.02;91.64;101294.41;4917163;29;20491;-76
2021/04/30 06:11:54;;;;;;;12.00;6.97;;;;;;;7.04;91.09;101301.19;4885839;29;20055;-77
2021/04/30 06:14:20;;;;;;;11.52;6.88;;;;;;;7.05;90.79;101307.19;4893528;29;20051;-76
2021/04/30 06:16:46;;;;;;;15.70;7.22;;;;;;;7.07;90.54;101300.16;4924112;29;20043;-76
2021/04/30 06:19:11;;;;;;;12.10;6.40;;;;;;;7.10;90.92;101318.13;4929033;29;20036;-75
2021/04/30 06:21:37;;;;;;;15.93;8.13;;;;;;;7.11;91.68;101330.16;4904089;29;20131;-74
2021/04/30 06:24:03;;;;;;;14.52;8.25;;;;;;;7.04;91.14;101313.28;4909093;29;20044;-76
2021/04/30 06:26:29;;;;;;;15.60;7.10;;;;;;;7.05;91.14;101320.97;4927635;29;20051;-76
2021/04/30 06:28:54;;;;;;;10.57;7.20;;;;;;;7.04;91.12;101311.53;4908111;29;20055;-76
2021/04/30 06:31:21;;;;;;;15.50;7.38;;;;;;;7.16;90.83;101336.72;4874077;29;20502;-76
2021/04/30 06:33:46;;;;;;;12.13;6.93;;;;;;;7.15;91.34;101332.47;4931532;29;20078;-76
2021/04/30 06:36:12;;;;;;;18.65;7.80;;;;;;;7.09;91.43;101329.41;4919480;29;20052;-76
2021/04/30 06:38:37;;;;;;;12.45;7.30;;;;;;;7.07;91.16;101334.66;4886967;29;20044;-76
2021/04/30 06:41:03;;;;;;;16.63;8.00;;;;;;;7.06;91.27;101325.22;4944001;28;20055;-76
2021/04/30 06:43:28;;;;;;;17.77;8.25;;;;;;;7.09;91.54;101334.59;4898385;29;20051;-76
2021/04/30 06:45:54;;;;;;;18.85;8.15;;;;;;;7.04;90.90;101321.06;4910420;29;20059;-76
2021/04/30 06:48:19;;;;;;;17.25;9.07;;;;;;;7.18;91.06;101337.50;4919486;29;20052;-76
2021/04/30 06:50:45;;;;;;;12.77;8.88;;;;;;;7.22;91.40;101331.22;4930600;29;20047;-76
2021/04/30 06:53:11;;;;;;;14.57;8.55;;;;;;;7.26;91.54;101335.31;4901128;29;20048;-76
2021/04/30 06:55:36;;;;;;;21.23;8.07;;;;;;;7.31;89.95;101329.88;4899202;29;20367;-75
2021/04/30 06:58:02;;;;;;;14.27;8.05;;;;;;;7.35;90.86;101338.28;4902225;29;20048;-76
2021/04/30 07:00:28;;;;;;;15.93;8.93;;;;;;;7.19;90.29;101310.69;4919855;29;20078;-76
2021/04/30 07:02:53;;;;;;;14.88;8.20;;;;;;;7.39;91.11;101335.47;4898678;29;20045;-76
2021/04/30 07:05:19;;;;;;;15.25;8.63;;;;;;;7.43;91.06;101334.38;4904066;29;20490;-76
2021/04/30 07:07:44;;;;;;;19.70;9.10;;;;;;;7.47;91.12;101335.84;4911369;29;20069;-76
2021/04/30 07:10:11;;;;;;;16.27;9.50;;;;;;;7.35;91.45;101307.22;4903186;29;20052;-76
2021/04/30 07:12:37;;;;;;;18.35;8.93;;;;;;;7.55;91.25;101336.28;4878194;29;20516;-76
2021/04/30 07:15:07;;;;;;;16.67;9.25;;;;;;;7.70;90.52;101334.53;4907917;29;20051;-76
2021/04/30 07:17:33;;;;;;;19.27;9.57;;;;;;;7.76;89.96;101333.38;4924756;28;20051;-77
2021/04/30 07:19:59;;;;;;;13.40;8.63;;;;;;;7.78;89.82;101319.38;4888758;29;20052;-76
2021/04/30 07:22:24;;;;;;;18.67;9.35;;;;;;;7.86;91.06;101329.31;4893998;29;20268;-76
2021/04/30 07:24:50;;;;;;;16.20;9.07;;;;;;;7.88;90.15;101330.88;4914438;29;20476;-75
2021/04/30 07:27:18;;;;;;;17.70;8.52;;;;;;;8.08;90.48;101349.66;4882010;29;20270;-75
2021/04/30 07:29:45;;;;;;;21.17;8.90;;;;;;;7.99;90.12;101343.22;4905304;29;20052;-76
2021/04/30 07:32:11;;;;;;;13.98;8.30;;;;;;;7.97;89.04;101337.31;4866780;29;20490;-76
2021/04/30 07:34:38;;;;;;;16.05;8.55;;;;;;;7.92;89.07;101328.13;4887113;29;20051;-76
2021/04/30 07:37:04;;;;;;;17.42;9.07;;;;;;;7.77;88.74;101306.53;4886362;29;20055;-76
2021/04/30 07:39:32;;;;;;;16.98;8.75;;;;;;;8.03;88.49;101341.28;4870500;29;20163;-75
2021/04/30 07:41:58;;;;;;;18.20;9.45;;;;;;;8.07;89.64;101356.56;4878753;29;20044;-76
2021/04/30 07:44:23;;;;;;;13.75;8.95;;;;;;;7.93;90.58;101334.97;4873595;29;20691;-75
2021/04/30 07:46:49;;;;;;;13.95;9.10;;;;;;;7.96;89.47;101340.00;4889567;29;20048;-76
2021/04/30 07:49:14;;;;;;;11.43;8.30;;;;;;;8.05;87.47;101366.19;4850350;29;20056;-77
2021/04/30 07:51:40;;;;;;;15.20;8.23;;;;;;;8.01;88.46;101369.06;4892550;29;20414;-77
2021/04/30 07:54:06;;;;;;;15.43;8.95;;;;;;;7.98;88.66;101374.44;4873363;29;20048;-76
2021/04/30 07:56:32;;;;;;;17.73;9.60;;;;;;;7.99;88.83;101376.94;4901049;29;20064;-77
2021/04/30 07:58:58;;;;;;;16.50;9.27;;;;;;;7.94;88.22;101373.78;4874768;29;20044;-76
2021/04/30 08:01:23;;;;;;;16.08;8.57;;;;;;;7.93;88.59;101373.88;4887472;29;20052;-79
2021/04/30 08:03:49;;;;;;;20.25;9.48;;;;;;;7.89;88.76;101381.81;4882515;29;20053;-79
2021/04/30 08:06:14;;;;;;;16.75;9.48;;;;;;;7.75;89.00;101349.84;4877264;29;20501;-82
2021/04/30 08:08:40;;;;;;;18.75;9.75;;;;;;;7.84;89.19;101372.63;4872396;29;20040;-77
2021/04/30 08:11:08;;;;;;;15.82;8.93;;;;;;;7.85;89.75;101382.91;4889437;29;20438;-80
2021/04/30 08:13:35;;;;;;;20.08;10.35;;;;;;;7.69;90.31;101355.38;4908016;29;20722;-79
2021/04/30 08:16:02;;;;;;;18.42;9.13;;;;;;;7.64;89.55;101340.09;4878656;29;20056;-79
2021/04/30 08:18:27;;;;;;;17.20;9.80;;;;;;;7.69;89.49;101358.78;4883932;29;20048;-80
2021/04/30 08:20:53;;;;;;;16.50;9.57;;;;;;;7.85;89.80;101390.69;4860325;29;20056;-79
2021/04/30 08:23:18;;;;;;;17.10;8.48;;;;;;;7.84;88.97;101364.88;4866920;29;20052;-79
2021/04/30 08:25:44;;;;;;;20.45;9.77;;;;;;;8.02;90.10;101387.13;4891348;29;20059;-80
2021/04/30 08:28:10;;;;;;;19.17;9.80;;;;;;;8.02;89.92;101383.72;4905144;29;20050;-79
2021/04/30 08:30:35;;;;;;;16.48;10.25;;;;;;;8.14;90.21;101386.44;4879619;29;20067;-79
2021/04/30 08:33:01;;;;;;;17.65;9.48;;;;;;;8.11;89.23;101368.47;4904325;29;20724;-80
2021/04/30 08:35:26;;;;;;;21.40;11.05;;;;;;;8.21;89.58;101379.09;4909347;29;20055;-79
2021/04/30 08:37:52;;;;;;;20.73;10.80;;;;;;;8.36;88.60;101396.41;4882856;29;20498;-78
2021/04/30 08:40:17;;;;;;;16.63;9.20;;;;;;;8.32;87.71;101368.09;4926111;29;20459;-79
2021/04/30 08:42:43;;;;;;;18.13;9.75;;;;;;;8.41;86.62;101370.16;4892991;29;20079;-79
2021/04/30 08:45:15;;;;;;;18.60;10.73;;;;;;;8.61;88.41;101398.34;4916313;29;20043;-77
2021/04/30 08:47:42;;;;;;;18.08;10.93;;;;;;;8.61;88.15;101394.91;4902576;28;20043;-79
2021/04/30 08:50:08;;;;;;;15.98;8.95;;;;;;;8.68;84.39;101406.63;4928149;29;20579;-80
2021/04/30 08:52:34;;;;;;;13.00;8.80;;;;;;;8.65;83.40;101402.47;4908788;29;21755;-79
2021/04/30 08:55:04;;;;;;;15.93;9.38;;;;;;;8.71;83.69;101402.06;4910398;29;20099;-80
2021/04/30 08:57:30;;;;;;;14.48;9.55;;;;;;;8.64;85.44;101372.22;4906424;28;20052;-79
2021/04/30 08:59:58;;;;;;;22.48;10.75;;;;;;;8.92;85.66;101409.47;4909786;29;20052;-79
2021/04/30 09:02:31;;;;;;;14.98;10.38;;;;;;;8.85;85.70;101385.66;4906247;28;20131;-77
2021/04/30 09:04:58;;;;;;;15.93;9.55;;;;;;;8.88;81.93;101401.03;4912363;29;20753;-77
2021/04/30 09:07:25;;;;;;;14.90;9.50;;;;;;;8.92;84.25;101410.31;4903288;28;20044;-77
2021/04/30 09:09:58;;;;;;;16.90;9.90;;;;;;;8.92;84.08;101415.50;4913791;29;20800;-78
2021/04/30 09:12:25;;;;;;;20.65;10.52;;;;;;;8.85;83.42;101410.78;4889187;29;20043;-78
2021/04/30 09:14:51;;;;;;;18.98;11.00;;;;;;;8.73;82.57;101395.03;4912377;29;20047;-80
2021/04/30 09:17:17;;;;;;;14.27;10.23;;;;;;;8.68;84.25;101396.25;4897745;28;20069;-79
2021/04/30 09:19:47;;;;;;;14.07;9.93;;;;;;;8.57;83.54;101367.47;4920141;29;20761;-79
2021/04/30 09:22:15;;;;;;;19.27;10.30;;;;;;;8.78;82.96;101415.50;4910229;29;20102;-79
2021/04/30 09:24:42;;;;;;;17.80;10.68;;;;;;;8.68;82.04;101404.03;4891195;29;20047;-78
2021/04/30 09:27:08;;;;;;;15.93;10.20;;;;;;;8.77;82.69;101412.06;4905988;29;20115;-80
2021/04/30 09:29:35;;;;;;;19.02;10.70;;;;;;;8.74;83.03;101399.28;4875415;29;20150;-77
2021/04/30 09:32:02;;;;;;;16.65;11.07;;;;;;;8.92;83.80;101396.50;4886856;29;20107;-78
2021/04/30 09:34:35;;;;;;;19.25;11.93;;;;;;;9.21;82.95;101413.72;4877976;29;20048;-79
2021/04/30 09:37:17;;;;;;;23.83;12.05;;;;;;;9.20;81.09;101393.03;4894957;29;20040;-77
2021/04/30 09:39:57;;;;;;;20.00;12.48;;;;;;;9.45;82.26;101398.31;4875552;29;20140;-77
2021/04/30 09:42:32;;;;;;;22.90;13.68;;;;;;;9.69;83.66;101411.50;4884918;29;20108;-75
2021/04/30 09:45:06;;;;;;;19.10;11.27;;;;;;;9.64;83.16;101391.00;4858829;29;20383;-77
2021/04/30 09:47:36;;;;;;;21.00;12.13;;;;;;;9.82;81.39;101401.13;4892202;29;20095;-79
2021/04/30 09:50:09;;;;;;;13.18;8.90;;;;;;;10.00;76.86;101407.72;4877612;29;20133;-81
2021/04/30 09:52:34;;;;;;;14.05;10.75;;;;;;;10.00;77.20;101382.53;4890433;29;21008;-78
2021/04/30 09:55:01;;;;;;;16.85;9.68;;;;;;;10.03;75.41;101401.50;4869154;29;20048;-78
2021/04/30 09:57:28;;;;;;;15.63;9.13;;;;;;;9.97;74.05;101400.13;4907868;29;20145;-77
2021/04/30 09:59:58;;;;;;;19.25;10.60;;;;;;;9.95;77.53;101412.41;4896431;29;20052;-77
2021/04/30 10:02:25;;;;;;;13.60;10.40;;;;;;;9.81;75.25;101410.72;4892454;29;20075;-79
2021/04/30 10:05:06;;;;;;;14.68;10.25;;;;;;;9.78;76.88;101410.91;4889041;29;20044;-77
2021/04/30 10:07:34;;;;;;;18.88;10.65;;;;;;;9.74;76.56;101416.41;4909135;29;20044;-77
2021/04/30 10:10:26;;;;;;;17.85;10.90;;;;;;;9.65;77.70;101404.84;4875159;29;20103;-78
2021/04/30 10:12:58;;;;;;;15.30;9.70;;;;;;;9.53;77.18;101393.47;4875027;29;20055;-78
2021/04/30 10:15:24;;;;;;;19.38;11.57;;;;;;;9.69;78.75;101408.91;4891236;29;20052;-78
2021/04/30 10:17:55;;;;;;;19.67;11.02;;;;;;;9.71;75.24;101412.25;4890793;29;20039;-79
2021/04/30 10:20:21;;;;;;;16.13;11.75;;;;;;;9.69;77.94;101401.97;4891505;29;20043;-78
2021/04/30 10:22:46;;;;;;;19.05;11.25;;;;;;;9.74;78.53;101395.63;4860335;29;20252;-77
2021/04/30 10:25:18;;;;;;;18.92;12.07;;;;;;;9.87;79.27;101412.06;4912199;29;20052;-79
2021/04/30 10:27:46;;;;;;;20.15;10.27;;;;;;;9.93;75.37;101409.09;4901615;29;20182;-79
2021/04/30 10:30:21;;;;;;;17.85;11.75;;;;;;;9.90;75.35;101404.91;4913757;29;20048;-78
2021/04/30 10:33:05;;;;;;;20.15;10.55;;;;;;;9.98;79.24;101414.81;4910791;29;20630;-78
2021/04/30 10:36:04;;;;;;;15.45;9.68;;;;;;;9.92;75.09;101410.03;4920958;29;20036;-78
2021/04/30 10:38:33;;;;;;;15.77;8.23;;;;;;;9.98;75.71;101410.44;4911854;29;20408;-80
2021/04/30 10:41:09;;;;;;;11.63;8.65;;;;;;;9.81;75.78;101397.69;4904750;29;20127;-81
2021/04/30 10:43:36;;;;;;;12.82;8.27;;;;;;;9.90;73.34;101417.09;4907959;29;20044;-79
2021/04/30 10:46:21;;;;;;;11.73;7.70;;;;;;;9.84;74.01;101420.06;4913452;29;20565;-79
2021/04/30 10:49:05;;;;;;;11.98;7.40;;;;;;;9.69;74.77;101417.56;4909959;29;20063;-79
2021/04/30 10:51:32;;;;;;;12.30;7.22;;;;;;;9.63;73.26;101422.31;4928234;29;20051;-79
2021/04/30 10:54:30;;;;;;;11.60;7.63;;;;;;;9.62;79.72;101416.28;4921692;29;20098;-79
2021/04/30 10:57:05;;;;;;;7.60;5.53;;;;;;;9.43;73.94;101401.94;4912232;29;20545;-79
2021/04/30 10:59:40;;;;;;;9.15;5.78;;;;;;;9.44;73.02;101414.84;4910908;29;20059;-78
2021/04/30 11:02:20;;;;;;;11.07;6.65;;;;;;;9.28;75.90;101398.56;4909606;29;20048;-79
2021/04/30 11:05:11;;;;;;;7.85;6.13;;;;;;;9.30;75.42;101420.06;4908144;29;20142;-78
2021/04/30 11:07:42;;;;;;;8.57;5.85;;;;;;;9.22;74.98;101415.38;4909957;29;20040;-79
2021/04/30 11:10:26;;;;;;;7.15;5.80;;;;;;;9.34;74.98;101419.81;4907615;29;20095;-79
2021/04/30 11:12:56;;;;;;;5.78;4.93;;;;;;;9.29;75.50;101416.66;4929339;29;20055;-78
2021/04/30 11:15:22;;;;;;;5.78;5.13;;;;;;;9.37;75.01;101411.81;4920874;29;20387;-79
2021/04/30 11:17:54;;;;;;;8.85;4.90;;;;;;;9.54;74.86;101430.72;4912694;29;20046;-79
2021/04/30 11:20:26;;;;;;;9.45;5.18;;;;;;;9.46;74.75;101422.53;4927320;29;20054;-79
2021/04/30 11:23:21;;;;;;;7.22;5.50;;;;;;;9.58;75.53;101427.81;4909762;29;20052;-79